Terminal Aerodrome Forecast
Issued by NWS

Home | Current Version | Previous Version | Text Only | Print | Product List | Glossary On
Versions: 1 2 3 4 5 6 7 8 9 10 11 12 13 14 15 16 17 18 19 20 21 22 23 24 25
776
FTUS43 KMQT 271735
TAFCMX
TAF
KCMX 271735Z 2718/2818 09007KT P6SM VCSH OVC050
     FM280100 09009KT 3SM BR OVC025
     FM280400 09008KT 1SM BR OVC003
     FM281000 09005KT 1/4SM FG OVC001
     FM281400 09005KT P6SM VCSH OVC003
     FM281600 11005KT P6SM VCSH OVC015=

USA.gov is the U.S. government's official web portal to all federal, state and local government web resources and services.